sensor_id;sensor_type;location;lat;lon;timestamp;pressure;altitude;pressure_sealevel;temperature
80537;BMP280;69867;47.074;15.404;2023-05-20T00:02:15;97799.03;;;14.66
80537;BMP280;69867;47.074;15.404;2023-05-20T00:04:40;97792.19;;;14.62
80537;BMP280;69867;47.074;15.404;2023-05-20T00:07:05;97804.38;;;14.63
80537;BMP280;69867;47.074;15.404;2023-05-20T00:09:31;97781.72;;;14.62
80537;BMP280;69867;47.074;15.404;2023-05-20T00:11:56;97793.91;;;14.63
80537;BMP280;69867;47.074;15.404;2023-05-20T00:14:21;97789.53;;;14.63
80537;BMP280;69867;47.074;15.404;2023-05-20T00:16:47;97780.78;;;14.64
80537;BMP280;69867;47.074;15.404;2023-05-20T00:19:12;97799.13;;;14.63
80537;BMP280;69867;47.074;15.404;2023-05-20T00:21:37;97795.59;;;14.64
80537;BMP280;69867;47.074;15.404;2023-05-20T00:24:03;97795.56;;;14.65
80537;BMP280;69867;47.074;15.404;2023-05-20T00:26:29;97797.19;;;14.68
80537;BMP280;69867;47.074;15.404;2023-05-20T00:28:54;97792.81;;;14.68
80537;BMP280;69867;47.074;15.404;2023-05-20T00:31:19;97791.84;;;14.71
80537;BMP280;69867;47.074;15.404;2023-05-20T00:33:45;97794.47;;;14.71
80537;BMP280;69867;47.074;15.404;2023-05-20T00:36:10;97783.97;;;14.72
80537;BMP280;69867;47.074;15.404;2023-05-20T00:38:35;97782.94;;;14.77
80537;BMP280;69867;47.074;15.404;2023-05-20T00:41:01;97791.63;;;14.77
80537;BMP280;69867;47.074;15.404;2023-05-20T00:43:26;97789.13;;;14.74
80537;BMP280;69867;47.074;15.404;2023-05-20T00:45:52;97791.75;;;14.74
80537;BMP280;69867;47.074;15.404;2023-05-20T00:48:18;97798.75;;;14.73
80537;BMP280;69867;47.074;15.404;2023-05-20T00:50:44;97797.88;;;14.73
80537;BMP280;69867;47.074;15.404;2023-05-20T00:53:10;97784.91;;;14.70
80537;BMP280;69867;47.074;15.404;2023-05-20T00:55:36;97779.91;;;14.64
80537;BMP280;69867;47.074;15.404;2023-05-20T00:58:01;97781.84;;;14.59
80537;BMP280;69867;47.074;15.404;2023-05-20T01:00:27;97780.03;;;14.61
80537;BMP280;69867;47.074;15.404;2023-05-20T01:02:54;97786.16;;;14.60
80537;BMP280;69867;47.074;15.404;2023-05-20T01:05:19;97782.69;;;14.59
80537;BMP280;69867;47.074;15.404;2023-05-20T01:07:45;97775.72;;;14.60
80537;BMP280;69867;47.074;15.404;2023-05-20T01:10:10;97774.84;;;14.59
80537;BMP280;69867;47.074;15.404;2023-05-20T01:12:42;97772.97;;;14.63
80537;BMP280;69867;47.074;15.404;2023-05-20T01:15:10;97775.59;;;14.63
80537;BMP280;69867;47.074;15.404;2023-05-20T01:17:39;97781.84;;;14.59
80537;BMP280;69867;47.074;15.404;2023-05-20T01:20:08;97781.84;;;14.59
80537;BMP280;69867;47.074;15.404;2023-05-20T01:22:36;97777.53;;;14.58
80537;BMP280;69867;47.074;15.404;2023-05-20T01:25:01;97772.34;;;14.56
80537;BMP280;69867;47.074;15.404;2023-05-20T01:27:27;97775.81;;;14.57
80537;BMP280;69867;47.074;15.404;2023-05-20T01:29:52;97770.66;;;14.55
80537;BMP280;69867;47.074;15.404;2023-05-20T01:32:27;97758.41;;;14.56
80537;BMP280;69867;47.074;15.404;2023-05-20T01:34:56;97747.38;;;14.48
80537;BMP280;69867;47.074;15.404;2023-05-20T01:37:23;97745.63;;;14.48
80537;BMP280;69867;47.074;15.404;2023-05-20T01:39:49;97753.47;;;14.48
80537;BMP280;69867;47.074;15.404;2023-05-20T01:42:16;97763.06;;;14.48
80537;BMP280;69867;47.074;15.404;2023-05-20T01:44:42;97767.41;;;14.49
80537;BMP280;69867;47.074;15.404;2023-05-20T01:47:07;97765.63;;;14.49
80537;BMP280;69867;47.074;15.404;2023-05-20T01:49:33;97761.25;;;14.50
80537;BMP280;69867;47.074;15.404;2023-05-20T01:51:58;97761.16;;;14.53
80537;BMP280;69867;47.074;15.404;2023-05-20T01:54:24;97747.16;;;14.54
80537;BMP280;69867;47.074;15.404;2023-05-20T01:56:49;97760.47;;;14.48
80537;BMP280;69867;47.074;15.404;2023-05-20T01:59:15;97752.72;;;14.45
80537;BMP280;69867;47.074;15.404;2023-05-20T02:04:05;97746.69;;;14.43
80537;BMP280;69867;47.074;15.404;2023-05-20T02:06:30;97741.41;;;14.44
80537;BMP280;69867;47.074;15.404;2023-05-20T02:08:56;97735.22;;;14.47
80537;BMP280;69867;47.074;15.404;2023-05-20T02:11:21;97734.25;;;14.49
80537;BMP280;69867;47.074;15.404;2023-05-20T02:13:48;97743.75;;;14.52
80537;BMP280;69867;47.074;15.404;2023-05-20T02:16:14;97738.53;;;14.52
80537;BMP280;69867;47.074;15.404;2023-05-20T02:18:39;97734.16;;;14.52
80537;BMP280;69867;47.074;15.404;2023-05-20T02:21:04;97735.09;;;14.50
80537;BMP280;69867;47.074;15.404;2023-05-20T02:23:30;97722.25;;;14.44
80537;BMP280;69867;47.074;15.404;2023-05-20T02:25:55;97738.81;;;14.44
80537;BMP280;69867;47.074;15.404;2023-05-20T02:28:21;97749.19;;;14.46
80537;BMP280;69867;47.074;15.404;2023-05-20T02:30:46;97760.56;;;14.45
80537;BMP280;69867;47.074;15.404;2023-05-20T02:33:12;97772.72;;;14.46
80537;BMP280;69867;47.074;15.404;2023-05-20T02:35:37;97778.75;;;14.48
80537;BMP280;69867;47.074;15.404;2023-05-20T02:38:02;97765.75;;;14.46
80537;BMP280;69867;47.074;15.404;2023-05-20T02:40:28;97756.25;;;14.44
80537;BMP280;69867;47.074;15.404;2023-05-20T02:42:53;97761.53;;;14.42
80537;BMP280;69867;47.074;15.404;2023-05-20T02:45:18;97757.09;;;14.44
80537;BMP280;69867;47.074;15.404;2023-05-20T02:47:44;97755.47;;;14.40
80537;BMP280;69867;47.074;15.404;2023-05-20T02:50:09;97745.97;;;14.37
80537;BMP280;69867;47.074;15.404;2023-05-20T02:52:34;97730.50;;;14.31
80537;BMP280;69867;47.074;15.404;2023-05-20T02:55:01;97737.53;;;14.29
80537;BMP280;69867;47.074;15.404;2023-05-20T02:57:26;97748.75;;;14.33
80537;BMP280;69867;47.074;15.404;2023-05-20T02:59:51;97753.81;;;14.37
80537;BMP280;69867;47.074;15.404;2023-05-20T03:02:17;97756.38;;;14.39
80537;BMP280;69867;47.074;15.404;2023-05-20T03:04:42;97755.47;;;14.40
80537;BMP280;69867;47.074;15.404;2023-05-20T03:07:07;97763.25;;;14.41
80537;BMP280;69867;47.074;15.404;2023-05-20T03:09:33;97764.16;;;14.42
80537;BMP280;69867;47.074;15.404;2023-05-20T03:11:58;97756.25;;;14.44
80537;BMP280;69867;47.074;15.404;2023-05-20T03:14:23;97759.72;;;14.44
80537;BMP280;69867;47.074;15.404;2023-05-20T03:16:49;97757.00;;;14.47
80537;BMP280;69867;47.074;15.404;2023-05-20T03:19:14;97750.13;;;14.45
80537;BMP280;69867;47.074;15.404;2023-05-20T03:21:39;97752.63;;;14.48
80537;BMP280;69867;47.074;15.404;2023-05-20T03:24:05;97753.53;;;14.47
80537;BMP280;69867;47.074;15.404;2023-05-20T03:26:30;97765.75;;;14.46
80537;BMP280;69867;47.074;15.404;2023-05-20T03:28:55;97760.81;;;14.37
80537;BMP280;69867;47.074;15.404;2023-05-20T03:31:21;97765.19;;;14.36
80537;BMP280;69867;47.074;15.404;2023-05-20T03:33:46;97770.31;;;14.39
80537;BMP280;69867;47.074;15.404;2023-05-20T03:36:11;97772.78;;;14.44
80537;BMP280;69867;47.074;15.404;2023-05-20T03:38:37;97772.63;;;14.49
80537;BMP280;69867;47.074;15.404;2023-05-20T03:41:02;97770.81;;;14.51
80537;BMP280;69867;47.074;15.404;2023-05-20T03:43:27;97764.63;;;14.53
80537;BMP280;69867;47.074;15.404;2023-05-20T03:45:53;97769.69;;;14.58
80537;BMP280;69867;47.074;15.404;2023-05-20T03:48:18;97766.25;;;14.56
80537;BMP280;69867;47.074;15.404;2023-05-20T03:50:43;97771.28;;;14.62
80537;BMP280;69867;47.074;15.404;2023-05-20T03:53:09;97766.94;;;14.61
80537;BMP280;69867;47.074;15.404;2023-05-20T03:55:34;97760.75;;;14.63
80537;BMP280;69867;47.074;15.404;2023-05-20T03:58:00;97765.94;;;14.65
80537;BMP280;69867;47.074;15.404;2023-05-20T04:00:25;97761.66;;;14.62
80537;BMP280;69867;47.074;15.404;2023-05-20T04:02:51;97766.28;;;14.79
80537;BMP280;69867;47.074;15.404;2023-05-20T04:05:16;97765.81;;;14.91
80537;BMP280;69867;47.074;15.404;2023-05-20T04:07:41;97761.09;;;15.01
80537;BMP280;69867;47.074;15.404;2023-05-20T04:10:07;97758.28;;;15.05
80537;BMP280;69867;47.074;15.404;2023-05-20T04:12:33;97767.72;;;15.10
80537;BMP280;69867;47.074;15.404;2023-05-20T04:14:58;97767.72;;;15.10
80537;BMP280;69867;47.074;15.404;2023-05-20T04:17:24;97767.91;;;15.05
80537;BMP280;69867;47.074;15.404;2023-05-20T04:19:49;97770.75;;;14.99
80537;BMP280;69867;47.074;15.404;2023-05-20T04:22:15;97769.09;;;14.96
80537;BMP280;69867;47.074;15.404;2023-05-20T04:24:40;97767.28;;;14.98
80537;BMP280;69867;47.074;15.404;2023-05-20T04:27:05;97767.97;;;15.03
80537;BMP280;69867;47.074;15.404;2023-05-20T04:29:31;97774.25;;;15.21
80537;BMP280;69867;47.074;15.404;2023-05-20T04:31:56;97767.44;;;15.39
80537;BMP280;69867;47.074;15.404;2023-05-20T04:34:21;97755.94;;;15.87
80537;BMP280;69867;47.074;15.404;2023-05-20T04:36:47;97759.75;;;16.20
80537;BMP280;69867;47.074;15.404;2023-05-20T04:39:12;97753.00;;;16.35
80537;BMP280;69867;47.074;15.404;2023-05-20T04:41:37;97754.28;;;16.45
80537;BMP280;69867;47.074;15.404;2023-05-20T04:44:03;97749.63;;;16.52
80537;BMP280;69867;47.074;15.404;2023-05-20T04:46:28;97758.09;;;16.98
80537;BMP280;69867;47.074;15.404;2023-05-20T04:48:53;97756.38;;;17.34
80537;BMP280;69867;47.074;15.404;2023-05-20T04:51:19;97762.59;;;17.50
80537;BMP280;69867;47.074;15.404;2023-05-20T04:53:44;97754.97;;;17.63
80537;BMP280;69867;47.074;15.404;2023-05-20T04:56:10;97750.00;;;17.76
80537;BMP280;69867;47.074;15.404;2023-05-20T04:58:36;97753.41;;;17.95
80537;BMP280;69867;47.074;15.404;2023-05-20T05:01:01;97747.91;;;18.00
80537;BMP280;69867;47.074;15.404;2023-05-20T05:03:27;97746.59;;;17.91
80537;BMP280;69867;47.074;15.404;2023-05-20T05:05:58;97748.53;;;17.70
80537;BMP280;69867;47.074;15.404;2023-05-20T05:08:24;97755.19;;;17.95
80537;BMP280;69867;47.074;15.404;2023-05-20T05:10:49;97749.69;;;18.16
80537;BMP280;69867;47.074;15.404;2023-05-20T05:13:15;97748.41;;;18.58
80537;BMP280;69867;47.074;15.404;2023-05-20T05:15:40;97747.31;;;18.79
80537;BMP280;69867;47.074;15.404;2023-05-20T05:18:05;97759.03;;;18.90
80537;BMP280;69867;47.074;15.404;2023-05-20T05:20:31;97750.81;;;18.96
80537;BMP280;69867;47.074;15.404;2023-05-20T05:22:56;97749.78;;;18.82
80537;BMP280;69867;47.074;15.404;2023-05-20T05:25:21;97756.94;;;18.63
80537;BMP280;69867;47.074;15.404;2023-05-20T05:27:47;97758.22;;;18.39
80537;BMP280;69867;47.074;15.404;2023-05-20T05:30:12;97764.53;;;18.17
80537;BMP280;69867;47.074;15.404;2023-05-20T05:32:37;97764.78;;;17.96
80537;BMP280;69867;47.074;15.404;2023-05-20T05:35:03;97769.78;;;17.83
80537;BMP280;69867;47.074;15.404;2023-05-20T05:37:31;97773.81;;;17.73
80537;BMP280;69867;47.074;15.404;2023-05-20T05:39:56;97770.66;;;17.65
80537;BMP280;69867;47.074;15.404;2023-05-20T05:42:21;97763.22;;;17.55
80537;BMP280;69867;47.074;15.404;2023-05-20T05:44:47;97767.41;;;17.59
80537;BMP280;69867;47.074;15.404;2023-05-20T05:47:13;97769.28;;;17.39
80537;BMP280;69867;47.074;15.404;2023-05-20T05:49:38;97767.66;;;17.36
80537;BMP280;69867;47.074;15.404;2023-05-20T05:52:04;97771.44;;;17.31
80537;BMP280;69867;47.074;15.404;2023-05-20T05:54:29;97769.25;;;17.21
80537;BMP280;69867;47.074;15.404;2023-05-20T05:56:54;97767.91;;;17.13
80537;BMP280;69867;47.074;15.404;2023-05-20T05:59:20;97771.59;;;17.09
80537;BMP280;69867;47.074;15.404;2023-05-20T06:01:45;97761.09;;;17.09
80537;BMP280;69867;47.074;15.404;2023-05-20T06:04:11;97761.44;;;17.20
80537;BMP280;69867;47.074;15.404;2023-05-20T06:06:36;97760.06;;;17.30
80537;BMP280;69867;47.074;15.404;2023-05-20T06:09:01;97760.03;;;17.68
80537;BMP280;69867;47.074;15.404;2023-05-20T06:11:27;97761.13;;;17.98
80537;BMP280;69867;47.074;15.404;2023-05-20T06:13:52;97754.94;;;18.16
80537;BMP280;69867;47.074;15.404;2023-05-20T06:16:18;97762.97;;;18.65
80537;BMP280;69867;47.074;15.404;2023-05-20T06:18:45;97750.06;;;19.41
80537;BMP280;69867;47.074;15.404;2023-05-20T06:21:10;97744.84;;;20.17
80537;BMP280;69867;47.074;15.404;2023-05-20T06:23:36;97745.88;;;20.58
80537;BMP280;69867;47.074;15.404;2023-05-20T06:26:01;97747.59;;;20.88
80537;BMP280;69867;47.074;15.404;2023-05-20T06:28:27;97751.84;;;20.90
80537;BMP280;69867;47.074;15.404;2023-05-20T06:30:55;97754.72;;;21.14
80537;BMP280;69867;47.074;15.404;2023-05-20T06:33:24;97747.97;;;21.51
80537;BMP280;69867;47.074;15.404;2023-05-20T06:35:57;97751.59;;;21.63
80537;BMP280;69867;47.074;15.404;2023-05-20T06:38:23;97755.28;;;21.33
80537;BMP280;69867;47.074;15.404;2023-05-20T06:40:48;97747.72;;;21.42
80537;BMP280;69867;47.074;15.404;2023-05-20T06:43:17;97749.28;;;20.89
80537;BMP280;69867;47.074;15.404;2023-05-20T06:45:42;97743.22;;;21.01
80537;BMP280;69867;47.074;15.404;2023-05-20T06:48:08;97740.69;;;20.71
80537;BMP280;69867;47.074;15.404;2023-05-20T06:50:33;97737.19;;;20.99
80537;BMP280;69867;47.074;15.404;2023-05-20T06:52:58;97730.84;;;21.16
80537;BMP280;69867;47.074;15.404;2023-05-20T06:55:24;97728.50;;;21.11
80537;BMP280;69867;47.074;15.404;2023-05-20T06:57:49;97722.16;;;21.14
80537;BMP280;69867;47.074;15.404;2023-05-20T07:00:15;97729.44;;;20.67
80537;BMP280;69867;47.074;15.404;2023-05-20T07:02:41;97715.50;;;20.80
80537;BMP280;69867;47.074;15.404;2023-05-20T07:05:07;97718.78;;;20.69
80537;BMP280;69867;47.074;15.404;2023-05-20T07:07:32;97710.50;;;20.47
80537;BMP280;69867;47.074;15.404;2023-05-20T07:09:58;97701.16;;;20.69
80537;BMP280;69867;47.074;15.404;2023-05-20T07:12:23;97708.53;;;20.64
80537;BMP280;69867;47.074;15.404;2023-05-20T07:14:49;97712.44;;;20.29
80537;BMP280;69867;47.074;15.404;2023-05-20T07:17:14;97705.13;;;20.62
80537;BMP280;69867;47.074;15.404;2023-05-20T07:19:40;97696.63;;;20.57
80537;BMP280;69867;47.074;15.404;2023-05-20T07:22:05;97698.03;;;20.77
80537;BMP280;69867;47.074;15.404;2023-05-20T07:24:31;97687.59;;;20.90
80537;BMP280;69867;47.074;15.404;2023-05-20T07:26:56;97691.50;;;21.11
80537;BMP280;69867;47.074;15.404;2023-05-20T07:29:21;97689.94;;;21.35
80537;BMP280;69867;47.074;15.404;2023-05-20T07:31:47;97692.88;;;20.90
80537;BMP280;69867;47.074;15.404;2023-05-20T07:34:12;97685.69;;;20.92
80537;BMP280;69867;47.074;15.404;2023-05-20T07:36:37;97684.81;;;21.47
80537;BMP280;69867;47.074;15.404;2023-05-20T07:39:03;97685.00;;;21.83
80537;BMP280;69867;47.074;15.404;2023-05-20T07:41:29;97678.44;;;22.16
80537;BMP280;69867;47.074;15.404;2023-05-20T07:43:54;97683.00;;;22.52
80537;BMP280;69867;47.074;15.404;2023-05-20T07:46:19;97676.19;;;22.86
80537;BMP280;69867;47.074;15.404;2023-05-20T07:48:45;97677.94;;;22.98
80537;BMP280;69867;47.074;15.404;2023-05-20T07:51:11;97670.16;;;22.58
80537;BMP280;69867;47.074;15.404;2023-05-20T07:53:36;97677.50;;;22.29
80537;BMP280;69867;47.074;15.404;2023-05-20T07:56:02;97672.09;;;21.91
80537;BMP280;69867;47.074;15.404;2023-05-20T07:58:27;97685.09;;;21.69
80537;BMP280;69867;47.074;15.404;2023-05-20T08:00:53;97682.53;;;21.67
80537;BMP280;69867;47.074;15.404;2023-05-20T08:03:18;97679.47;;;21.61
80537;BMP280;69867;47.074;15.404;2023-05-20T08:05:44;97687.94;;;21.66
80537;BMP280;69867;47.074;15.404;2023-05-20T08:08:09;97680.75;;;21.68
80537;BMP280;69867;47.074;15.404;2023-05-20T08:10:35;97681.56;;;21.56
80537;BMP280;69867;47.074;15.404;2023-05-20T08:13:01;97679.50;;;21.47
80537;BMP280;69867;47.074;15.404;2023-05-20T08:15:26;97677.75;;;21.60
80537;BMP280;69867;47.074;15.404;2023-05-20T08:17:51;97677.78;;;21.72
80537;BMP280;69867;47.074;15.404;2023-05-20T08:20:17;97676.09;;;21.71
80537;BMP280;69867;47.074;15.404;2023-05-20T08:22:42;97674.28;;;21.59
80537;BMP280;69867;47.074;15.404;2023-05-20T08:25:08;97668.19;;;21.97
80537;BMP280;69867;47.074;15.404;2023-05-20T08:27:34;97662.53;;;22.54
80537;BMP280;69867;47.074;15.404;2023-05-20T08:30:00;97657.84;;;22.83
80537;BMP280;69867;47.074;15.404;2023-05-20T08:32:25;97650.28;;;23.02
80537;BMP280;69867;47.074;15.404;2023-05-20T08:34:51;97649.81;;;23.08
80537;BMP280;69867;47.074;15.404;2023-05-20T08:37:16;97648.38;;;23.28
80537;BMP280;69867;47.074;15.404;2023-05-20T08:39:41;97649.53;;;23.60
80537;BMP280;69867;47.074;15.404;2023-05-20T08:42:08;97643.09;;;23.87
80537;BMP280;69867;47.074;15.404;2023-05-20T08:44:33;97632.75;;;23.95
80537;BMP280;69867;47.074;15.404;2023-05-20T08:47:00;97633.09;;;23.90
80537;BMP280;69867;47.074;15.404;2023-05-20T08:49:26;97629.47;;;23.91
80537;BMP280;69867;47.074;15.404;2023-05-20T08:51:51;97629.59;;;23.90
80537;BMP280;69867;47.074;15.404;2023-05-20T08:54:17;97616.69;;;23.97
80537;BMP280;69867;47.074;15.404;2023-05-20T08:56:45;97614.91;;;24.19
80537;BMP280;69867;47.074;15.404;2023-05-20T08:59:11;97621.78;;;24.11
80537;BMP280;69867;47.074;15.404;2023-05-20T09:01:40;97624.25;;;23.79
80537;BMP280;69867;47.074;15.404;2023-05-20T09:04:06;97617.97;;;23.69
80537;BMP280;69867;47.074;15.404;2023-05-20T09:06:44;97610.84;;;23.69
80537;BMP280;69867;47.074;15.404;2023-05-20T09:09:11;97612.34;;;23.84
80537;BMP280;69867;47.074;15.404;2023-05-20T09:11:36;97611.34;;;23.26
80537;BMP280;69867;47.074;15.404;2023-05-20T09:14:02;97614.59;;;22.33
80537;BMP280;69867;47.074;15.404;2023-05-20T09:16:27;97615.09;;;22.38
80537;BMP280;69867;47.074;15.404;2023-05-20T09:18:56;97616.28;;;22.34
80537;BMP280;69867;47.074;15.404;2023-05-20T09:21:28;97617.94;;;22.60
80537;BMP280;69867;47.074;15.404;2023-05-20T09:23:54;97617.16;;;22.84
80537;BMP280;69867;47.074;15.404;2023-05-20T09:26:19;97610.34;;;23.16
80537;BMP280;69867;47.074;15.404;2023-05-20T09:28:45;97604.28;;;23.38
80537;BMP280;69867;47.074;15.404;2023-05-20T09:31:12;97608.72;;;23.85
80537;BMP280;69867;47.074;15.404;2023-05-20T09:33:38;97601.50;;;24.10
80537;BMP280;69867;47.074;15.404;2023-05-20T09:36:06;97610.09;;;24.13
80537;BMP280;69867;47.074;15.404;2023-05-20T09:38:35;97602.84;;;24.04
80537;BMP280;69867;47.074;15.404;2023-05-20T09:41:11;97600.75;;;23.85
80537;BMP280;69867;47.074;15.404;2023-05-20T09:43:38;97597.59;;;23.80
80537;BMP280;69867;47.074;15.404;2023-05-20T09:46:04;97595.84;;;23.57
80537;BMP280;69867;47.074;15.404;2023-05-20T09:48:29;97589.47;;;23.59
80537;BMP280;69867;47.074;15.404;2023-05-20T09:50:56;97590.34;;;23.71
80537;BMP280;69867;47.074;15.404;2023-05-20T09:53:24;97592.84;;;23.61
80537;BMP280;69867;47.074;15.404;2023-05-20T09:55:51;97585.63;;;23.64
80537;BMP280;69867;47.074;15.404;2023-05-20T09:58:18;97591.81;;;23.75
80537;BMP280;69867;47.074;15.404;2023-05-20T10:00:44;97594.56;;;23.63
80537;BMP280;69867;47.074;15.404;2023-05-20T10:03:09;97593.03;;;23.93
80537;BMP280;69867;47.074;15.404;2023-05-20T10:05:37;97589.69;;;24.14
80537;BMP280;69867;47.074;15.404;2023-05-20T10:08:22;97594.19;;;24.47
80537;BMP280;69867;47.074;15.404;2023-05-20T10:11:06;97576.53;;;24.79
80537;BMP280;69867;47.074;15.404;2023-05-20T10:21:33;97569.25;;;24.93
80537;BMP280;69867;47.074;15.404;2023-05-20T10:24:06;97569.03;;;24.84
80537;BMP280;69867;47.074;15.404;2023-05-20T10:26:41;97566.38;;;24.84
80537;BMP280;69867;47.074;15.404;2023-05-20T10:29:16;97567.00;;;24.66
80537;BMP280;69867;47.074;15.404;2023-05-20T10:31:49;97565.44;;;24.52
80537;BMP280;69867;47.074;15.404;2023-05-20T10:34:15;97559.53;;;24.48
80537;BMP280;69867;47.074;15.404;2023-05-20T10:39:27;97558.56;;;24.16
80537;BMP280;69867;47.074;15.404;2023-05-20T10:42:07;97563.63;;;24.19
80537;BMP280;69867;47.074;15.404;2023-05-20T10:44:59;97570.06;;;24.28
80537;BMP280;69867;47.074;15.404;2023-05-20T10:47:24;97563.13;;;24.25
80537;BMP280;69867;47.074;15.404;2023-05-20T10:49:49;97560.97;;;24.08
80537;BMP280;69867;47.074;15.404;2023-05-20T10:52:18;97561.94;;;24.18
80537;BMP280;69867;47.074;15.404;2023-05-20T10:54:45;97560.97;;;24.41
80537;BMP280;69867;47.074;15.404;2023-05-20T10:57:11;97550.56;;;24.61
80537;BMP280;69867;47.074;15.404;2023-05-20T10:59:36;97551.53;;;24.82
80537;BMP280;69867;47.074;15.404;2023-05-20T11:02:02;97550.72;;;25.13
80537;BMP280;69867;47.074;15.404;2023-05-20T11:04:29;97546.72;;;25.40
80537;BMP280;69867;47.074;15.404;2023-05-20T11:06:55;97540.53;;;25.71
80537;BMP280;69867;47.074;15.404;2023-05-20T11:09:21;97537.84;;;25.92
80537;BMP280;69867;47.074;15.404;2023-05-20T11:11:47;97538.63;;;25.83
80537;BMP280;69867;47.074;15.404;2023-05-20T11:14:12;97537.78;;;25.62
80537;BMP280;69867;47.074;15.404;2023-05-20T11:16:38;97533.22;;;25.32
80537;BMP280;69867;47.074;15.404;2023-05-20T11:19:05;97534.00;;;25.23
80537;BMP280;69867;47.074;15.404;2023-05-20T11:21:31;97531.34;;;25.23
80537;BMP280;69867;47.074;15.404;2023-05-20T11:23:56;97535.19;;;25.30
80537;BMP280;69867;47.074;15.404;2023-05-20T11:26:21;97532.56;;;25.18
80537;BMP280;69867;47.074;15.404;2023-05-20T11:28:47;97530.56;;;25.32
80537;BMP280;69867;47.074;15.404;2023-05-20T11:31:12;97524.47;;;25.20
80537;BMP280;69867;47.074;15.404;2023-05-20T11:33:40;97516.53;;;25.09
80537;BMP280;69867;47.074;15.404;2023-05-20T11:36:08;97518.63;;;24.94
80537;BMP280;69867;47.074;15.404;2023-05-20T11:38:33;97505.31;;;24.94
80537;BMP280;69867;47.074;15.404;2023-05-20T11:40:59;97511.22;;;25.09
80537;BMP280;69867;47.074;15.404;2023-05-20T11:43:24;97512.81;;;25.00
80537;BMP280;69867;47.074;15.404;2023-05-20T11:45:54;97516.22;;;24.91
80537;BMP280;69867;47.074;15.404;2023-05-20T11:48:20;97509.78;;;24.94
80537;BMP280;69867;47.074;15.404;2023-05-20T11:50:46;97512.72;;;24.91
80537;BMP280;69867;47.074;15.404;2023-05-20T11:53:17;97519.38;;;24.85
80537;BMP280;69867;47.074;15.404;2023-05-20T11:58:18;97508.78;;;24.63
80537;BMP280;69867;47.074;15.404;2023-05-20T12:00:44;97502.28;;;24.55
80537;BMP280;69867;47.074;15.404;2023-05-20T12:03:09;97501.66;;;24.63
80537;BMP280;69867;47.074;15.404;2023-05-20T12:05:35;97507.84;;;24.52
80537;BMP280;69867;47.074;15.404;2023-05-20T12:08:00;97497.66;;;24.69
80537;BMP280;69867;47.074;15.404;2023-05-20T12:10:25;97502.97;;;24.80
80537;BMP280;69867;47.074;15.404;2023-05-20T12:12:51;97495.63;;;24.72
80537;BMP280;69867;47.074;15.404;2023-05-20T12:15:16;97490.19;;;24.74
80537;BMP280;69867;47.074;15.404;2023-05-20T12:17:50;97499.59;;;24.67
80537;BMP280;69867;47.074;15.404;2023-05-20T12:20:16;97507.25;;;24.49
80537;BMP280;69867;47.074;15.404;2023-05-20T12:22:45;97498.44;;;24.37
80537;BMP280;69867;47.074;15.404;2023-05-20T12:25:12;97493.88;;;24.28
80537;BMP280;69867;47.074;15.404;2023-05-20T12:27:37;97496.88;;;24.12
80537;BMP280;69867;47.074;15.404;2023-05-20T12:30:03;97505.69;;;23.90
80537;BMP280;69867;47.074;15.404;2023-05-20T12:32:28;97505.94;;;23.87
80537;BMP280;69867;47.074;15.404;2023-05-20T12:34:53;97505.47;;;23.93
80537;BMP280;69867;47.074;15.404;2023-05-20T12:37:19;97495.56;;;23.84
80537;BMP280;69867;47.074;15.404;2023-05-20T12:39:44;97495.69;;;23.83
80537;BMP280;69867;47.074;15.404;2023-05-20T12:42:09;97499.44;;;23.80
80537;BMP280;69867;47.074;15.404;2023-05-20T12:44:35;97488.22;;;23.88
80537;BMP280;69867;47.074;15.404;2023-05-20T12:47:00;97495.56;;;23.96
80537;BMP280;69867;47.074;15.404;2023-05-20T12:49:25;97485.78;;;23.96
80537;BMP280;69867;47.074;15.404;2023-05-20T12:51:51;97485.41;;;24.12
80537;BMP280;69867;47.074;15.404;2023-05-20T12:54:16;97487.22;;;24.22
80537;BMP280;69867;47.074;15.404;2023-05-20T12:56:42;97486.13;;;24.36
80537;BMP280;69867;47.074;15.404;2023-05-20T12:59:07;97487.56;;;24.40
80537;BMP280;69867;47.074;15.404;2023-05-20T13:01:32;97484.44;;;24.46
80537;BMP280;69867;47.074;15.404;2023-05-20T13:03:58;97483.13;;;24.41
80537;BMP280;69867;47.074;15.404;2023-05-20T13:06:23;97478.66;;;24.41
80537;BMP280;69867;47.074;15.404;2023-05-20T13:08:48;97475.03;;;24.42
80537;BMP280;69867;47.074;15.404;2023-05-20T13:11:14;97470.69;;;24.41
80537;BMP280;69867;47.074;15.404;2023-05-20T13:13:39;97468.38;;;24.48
80537;BMP280;69867;47.074;15.404;2023-05-20T13:16:05;97467.44;;;24.70
80537;BMP280;69867;47.074;15.404;2023-05-20T13:18:30;97461.97;;;24.50
80537;BMP280;69867;47.074;15.404;2023-05-20T13:20:55;97461.81;;;24.95
80537;BMP280;69867;47.074;15.404;2023-05-20T13:23:21;97459.41;;;25.03
80537;BMP280;69867;47.074;15.404;2023-05-20T13:25:46;97462.78;;;25.05
80537;BMP280;69867;47.074;15.404;2023-05-20T13:28:11;97459.91;;;25.18
80537;BMP280;69867;47.074;15.404;2023-05-20T13:30:37;97452.84;;;25.28
80537;BMP280;69867;47.074;15.404;2023-05-20T13:33:02;97463.94;;;25.12
80537;BMP280;69867;47.074;15.404;2023-05-20T13:35:27;97453.63;;;25.19
80537;BMP280;69867;47.074;15.404;2023-05-20T13:37:53;97460.50;;;24.89
80537;BMP280;69867;47.074;15.404;2023-05-20T13:40:18;97449.03;;;24.89
80537;BMP280;69867;47.074;15.404;2023-05-20T13:42:43;97453.44;;;24.68
80537;BMP280;69867;47.074;15.404;2023-05-20T13:45:09;97458.03;;;24.66
80537;BMP280;69867;47.074;15.404;2023-05-20T13:47:34;97456.41;;;24.53
80537;BMP280;69867;47.074;15.404;2023-05-20T13:50:00;97453.78;;;24.42
80537;BMP280;69867;47.074;15.404;2023-05-20T13:52:25;97451.16;;;24.31
80537;BMP280;69867;47.074;15.404;2023-05-20T13:54:50;97446.06;;;24.28
80537;BMP280;69867;47.074;15.404;2023-05-20T13:57:16;97446.06;;;24.17
80537;BMP280;69867;47.074;15.404;2023-05-20T13:59:41;97440.91;;;24.27
80537;BMP280;69867;47.074;15.404;2023-05-20T14:02:06;97444.75;;;24.34
80537;BMP280;69867;47.074;15.404;2023-05-20T14:04:32;97442.59;;;24.28
80537;BMP280;69867;47.074;15.404;2023-05-20T14:06:58;97444.41;;;24.27